Terminal Aerodrome Forecast
Issued by NWS

Home | Current Version | Previous Version | Text Only | Print | Product List | Glossary On
Versions: 1 2 3 4 5 6 7 8 9 10 11 12 13 14 15 16
000
FTUS44 KEPZ 222320
TAFTCS
TAF
KTCS 222320Z 2300/2324 20012KT P6SM SCT120 BKN250
     FM230600 30008KT P6SM SCT100 BKN250
     FM231700 15010KT P6SM FEW080=

USA.gov is the U.S. government's official web portal to all federal, state and local government web resources and services.